createdAt,value
2022-10-31T00:01:57.853Z,100389.00
2022-10-31T00:05:07.650Z,100388.40
2022-10-31T00:08:14.758Z,100386.40
2022-10-31T00:11:27.739Z,100380.80
2022-10-31T00:14:37.755Z,100382.20
2022-10-31T00:17:47.775Z,100384.60
2022-10-31T00:20:57.735Z,100383.00
2022-10-31T00:24:07.781Z,100387.40
2022-10-31T00:27:14.798Z,100379.40
2022-10-31T00:30:21.741Z,100379.40
2022-10-31T00:33:31.785Z,100386.80
2022-10-31T00:36:38.845Z,100386.20
2022-10-31T00:39:48.798Z,100384.00
2022-10-31T00:42:55.856Z,100385.00
2022-10-31T00:46:06.803Z,100378.20
2022-10-31T00:49:13.820Z,100385.00
2022-10-31T00:52:20.793Z,100387.80
2022-10-31T00:55:27.912Z,100393.60
2022-10-31T00:58:37.882Z,100397.00
2022-10-31T01:01:51.005Z,100402.20
2022-10-31T01:05:00.909Z,100398.20
2022-10-31T01:08:07.878Z,100397.40
2022-10-31T01:11:20.878Z,100388.60
2022-10-31T01:14:30.845Z,100396.40
2022-10-31T01:17:40.887Z,100392.60
2022-10-31T01:20:50.895Z,100402.20
2022-10-31T01:23:57.966Z,100412.40
2022-10-31T01:27:07.964Z,100403.00
2022-10-31T01:30:20.882Z,100408.60
2022-10-31T01:33:30.938Z,100414.00
2022-10-31T01:36:44.914Z,100417.00
2022-10-31T01:39:52.031Z,100419.40
2022-10-31T01:43:02.232Z,100412.20
2022-10-31T01:46:10.000Z,100415.00
2022-10-31T01:49:16.971Z,100412.40
2022-10-31T01:52:26.963Z,100411.20
2022-10-31T01:55:34.048Z,100413.60
2022-10-31T01:58:43.979Z,100409.60
2022-10-31T02:01:54.196Z,100418.80
2022-10-31T02:05:02.047Z,100418.40
2022-10-31T02:08:12.022Z,100417.20
2022-10-31T02:11:19.013Z,100409.80
2022-10-31T02:14:26.070Z,100421.40
2022-10-31T02:17:36.014Z,100427.80
2022-10-31T02:20:43.055Z,100425.20
2022-10-31T02:23:50.623Z,100429.40
2022-10-31T02:26:58.059Z,100429.20
2022-10-31T02:30:11.057Z,100430.80
2022-10-31T02:33:18.151Z,100435.80
2022-10-31T02:36:28.101Z,100441.00
2022-10-31T02:39:35.058Z,100439.40
2022-10-31T02:42:45.088Z,100446.00
2022-10-31T02:45:52.132Z,100445.60
2022-10-31T02:49:05.101Z,100440.00
2022-10-31T02:52:12.107Z,100443.00
2022-10-31T02:55:23.170Z,100453.80
2022-10-31T02:58:33.166Z,100449.20
2022-10-31T03:01:40.247Z,100448.60
2022-10-31T03:04:48.175Z,100450.00
2022-10-31T03:07:55.306Z,100450.00
2022-10-31T03:11:03.168Z,100452.00
2022-10-31T03:14:13.159Z,100459.00
2022-10-31T03:18:19.844Z,100457.80
2022-10-31T03:21:30.298Z,100452.60
2022-10-31T03:24:38.407Z,100455.60
2022-10-31T03:27:45.296Z,100455.20
2022-10-31T03:30:55.289Z,100452.40
2022-10-31T03:34:05.469Z,100457.80
2022-10-31T03:37:15.325Z,100456.40
2022-10-31T03:40:22.455Z,100460.60
2022-10-31T03:43:30.303Z,100465.60
2022-10-31T03:46:37.399Z,100467.20
2022-10-31T03:49:51.291Z,100470.20
2022-10-31T03:56:25.296Z,100475.00
2022-10-31T03:59:32.421Z,100474.60
2022-10-31T04:02:48.509Z,100470.60
2022-10-31T04:06:09.356Z,100475.80
2022-10-31T04:09:20.531Z,100473.00
2022-10-31T04:12:36.425Z,100473.00
2022-10-31T04:16:49.829Z,100471.40
2022-10-31T04:23:50.577Z,100473.80
2022-10-31T04:27:06.650Z,100481.40
2022-10-31T04:30:19.498Z,100474.80
2022-10-31T04:37:38.364Z,100465.00
2022-10-31T04:41:04.362Z,100469.80
2022-10-31T04:45:09.659Z,100469.80
2022-10-31T04:52:25.414Z,100474.40
2022-10-31T04:55:32.625Z,100476.80
2022-10-31T04:58:40.492Z,100481.00
2022-10-31T05:01:47.747Z,100488.80
2022-10-31T05:05:01.312Z,100490.60
2022-10-31T05:08:24.679Z,100492.20
2022-10-31T05:12:35.688Z,100487.00
2022-10-31T05:15:53.751Z,100500.00
2022-10-31T05:19:22.894Z,100500.20
2022-10-31T05:22:38.786Z,100506.20
2022-10-31T05:25:49.623Z,100516.20
2022-10-31T05:28:59.704Z,100516.60
2022-10-31T05:32:07.703Z,100523.00
2022-10-31T05:35:18.774Z,100521.00
2022-10-31T05:38:41.696Z,100523.40
2022-10-31T05:41:56.800Z,100526.20
2022-10-31T05:45:10.857Z,100529.40
2022-10-31T05:48:32.522Z,100534.80
2022-10-31T05:58:55.444Z,100534.60
2022-10-31T06:02:17.186Z,100546.00
2022-10-31T06:06:03.247Z,100545.00
2022-10-31T06:09:44.781Z,100541.00
2022-10-31T06:13:09.145Z,100540.00
2022-10-31T06:16:21.838Z,100545.40
2022-10-31T06:19:32.886Z,100553.40
2022-10-31T06:23:27.665Z,100564.40
2022-10-31T06:26:39.584Z,100574.20
2022-10-31T06:33:03.857Z,100579.40
2022-10-31T06:36:07.833Z,100587.00
2022-10-31T06:39:17.796Z,100576.80
2022-10-31T06:42:30.811Z,100575.60
2022-10-31T06:45:46.824Z,100573.40
2022-10-31T06:48:58.857Z,100584.00
2022-10-31T06:52:12.857Z,100582.00
2022-10-31T06:55:24.958Z,100583.20
2022-10-31T06:58:38.819Z,100578.80
2022-10-31T07:01:49.981Z,100583.60
2022-10-31T07:05:03.917Z,100587.40
2022-10-31T07:08:10.885Z,100588.20
2022-10-31T07:11:27.877Z,100590.40
2022-10-31T07:14:41.924Z,100592.00
2022-10-31T07:17:54.942Z,100587.20
2022-10-31T07:21:10.908Z,100582.60
2022-10-31T07:24:17.952Z,100582.20
2022-10-31T07:27:28.059Z,100581.60
2022-10-31T07:30:38.959Z,100585.60
2022-10-31T07:33:48.918Z,100588.00
2022-10-31T07:37:01.954Z,100590.20
2022-10-31T07:40:09.087Z,100587.60
2022-10-31T07:43:19.028Z,100589.40
2022-10-31T07:46:32.128Z,100586.00
2022-10-31T07:49:40.065Z,100593.00
2022-10-31T07:52:59.101Z,100593.40
2022-10-31T07:56:13.927Z,100595.60
2022-10-31T07:59:45.250Z,100596.00
2022-10-31T08:03:01.563Z,100593.80
2022-10-31T08:09:43.033Z,100599.40
2022-10-31T08:12:56.053Z,100599.80
2022-10-31T08:16:09.207Z,100602.60
2022-10-31T08:19:17.064Z,100600.80
2022-10-31T08:22:24.130Z,100595.20
2022-10-31T08:25:33.875Z,100594.60
2022-10-31T08:28:46.209Z,100594.00
2022-10-31T08:31:53.124Z,100592.40
2022-10-31T08:35:03.147Z,100590.80
2022-10-31T08:38:13.099Z,100593.20
2022-10-31T08:41:20.088Z,100596.00
2022-10-31T08:44:30.068Z,100592.80
2022-10-31T08:47:37.126Z,100590.20
2022-10-31T08:50:44.173Z,100594.00
2022-10-31T08:54:03.138Z,100589.00
2022-10-31T08:57:10.191Z,100588.20
2022-10-31T09:00:17.134Z,100589.60
2022-10-31T09:03:31.151Z,100588.20
2022-10-31T09:07:19.989Z,100587.00
2022-10-31T09:10:24.432Z,100586.80
2022-10-31T09:13:42.338Z,100590.00
2022-10-31T09:16:49.259Z,100595.00
2022-10-31T09:19:56.272Z,100595.00
2022-10-31T09:23:03.416Z,100589.80
2022-10-31T09:26:13.426Z,100595.00
2022-10-31T09:29:21.755Z,100592.80
2022-10-31T09:32:32.488Z,100595.40
2022-10-31T09:35:40.330Z,100593.60
2022-10-31T09:38:53.485Z,100589.00
2022-10-31T09:42:03.366Z,100591.00
2022-10-31T09:45:14.378Z,100585.80
2022-10-31T09:48:24.377Z,100586.80
2022-10-31T09:51:34.390Z,100586.40
2022-10-31T09:54:44.397Z,100579.20
2022-10-31T09:58:11.372Z,100578.40
2022-10-31T10:01:18.633Z,100563.20
2022-10-31T10:04:30.373Z,100562.20
2022-10-31T10:07:41.436Z,100563.40
2022-10-31T10:10:55.423Z,100563.20
2022-10-31T10:14:05.448Z,100565.00
2022-10-31T10:17:15.494Z,100559.40
2022-10-31T10:20:25.439Z,100557.20
2022-10-31T10:23:46.462Z,100553.80
2022-10-31T10:26:59.527Z,100556.60
2022-10-31T10:30:14.733Z,100553.80
2022-10-31T10:33:22.500Z,100547.40
2022-10-31T10:36:29.463Z,100550.80
2022-10-31T10:39:40.540Z,100545.20
2022-10-31T10:42:53.530Z,100548.40
2022-10-31T10:46:00.520Z,100551.00
2022-10-31T10:49:10.513Z,100543.60
2022-10-31T10:52:39.714Z,100543.80
2022-10-31T10:55:47.617Z,100535.40
2022-10-31T10:58:54.562Z,100531.40
2022-10-31T11:02:04.510Z,100527.80
2022-10-31T11:05:14.567Z,100528.80
2022-10-31T11:08:26.212Z,100526.00
2022-10-31T11:11:34.623Z,100516.20
2022-10-31T11:14:52.727Z,100515.40
2022-10-31T11:18:02.677Z,100524.80
2022-10-31T11:21:12.618Z,100519.20
2022-10-31T11:24:27.065Z,100515.80
2022-10-31T11:27:37.680Z,100512.80
2022-10-31T11:30:44.652Z,100511.40
2022-10-31T11:34:05.667Z,100508.00
2022-10-31T11:37:15.730Z,100506.60
2022-10-31T11:40:28.712Z,100501.80
2022-10-31T11:43:42.803Z,100505.80
2022-10-31T11:46:53.822Z,100495.00
2022-10-31T11:50:04.747Z,100494.80
2022-10-31T11:53:14.736Z,100492.40
2022-10-31T11:56:30.663Z,100487.60
2022-10-31T11:59:42.705Z,100486.40
2022-10-31T12:02:54.066Z,100488.80
2022-10-31T12:06:09.762Z,100483.40
2022-10-31T12:12:26.725Z,100479.40
2022-10-31T12:15:33.816Z,100482.00
2022-10-31T12:18:43.803Z,100473.80
2022-10-31T12:21:53.785Z,100473.80
2022-10-31T12:25:03.776Z,100472.40
2022-10-31T12:28:10.917Z,100473.60
2022-10-31T12:31:18.782Z,100471.20
2022-10-31T12:34:25.790Z,100468.00
2022-10-31T12:37:35.884Z,100469.00
2022-10-31T12:41:00.002Z,100470.80
2022-10-31T12:44:13.879Z,100467.20
2022-10-31T12:47:23.868Z,100466.20
2022-10-31T12:57:41.735Z,100466.00
2022-10-31T13:00:51.898Z,100472.00
2022-10-31T13:04:06.131Z,100474.80
2022-10-31T13:07:20.894Z,100471.00
2022-10-31T13:10:30.020Z,100468.40
2022-10-31T13:13:44.062Z,100469.40
2022-10-31T13:16:54.074Z,100471.80
2022-10-31T13:20:05.051Z,100475.80
2022-10-31T13:23:30.078Z,100473.80
2022-10-31T13:26:41.861Z,100471.60
2022-10-31T13:29:52.088Z,100473.40
2022-10-31T13:33:05.994Z,100472.60
2022-10-31T13:36:22.390Z,100472.20
2022-10-31T13:39:30.019Z,100471.00
2022-10-31T13:42:41.053Z,100476.00
2022-10-31T13:45:47.965Z,100476.20
2022-10-31T13:48:54.947Z,100480.40
2022-10-31T13:52:09.999Z,100479.00
2022-10-31T13:55:22.989Z,100481.60
2022-10-31T13:58:36.049Z,100479.60
2022-10-31T14:01:50.227Z,100479.60
2022-10-31T14:05:01.029Z,100480.40
2022-10-31T14:08:08.012Z,100480.00
2022-10-31T14:11:15.101Z,100484.40
2022-10-31T14:14:26.095Z,100485.20
2022-10-31T14:17:33.028Z,100488.60
2022-10-31T14:20:40.088Z,100486.60
2022-10-31T14:23:54.215Z,100488.00
2022-10-31T14:27:05.179Z,100487.80
2022-10-31T14:30:18.206Z,100492.20
2022-10-31T14:33:28.089Z,100491.00
2022-10-31T14:36:42.207Z,100488.20
2022-10-31T14:39:56.558Z,100485.60
2022-10-31T14:43:06.189Z,100484.80
2022-10-31T14:46:23.252Z,100486.20
2022-10-31T14:49:30.232Z,100485.40
2022-10-31T14:52:37.190Z,100487.00
2022-10-31T14:55:47.207Z,100487.40
2022-10-31T14:58:54.260Z,100491.80
2022-10-31T15:02:04.440Z,100492.40
2022-10-31T15:05:12.216Z,100498.60
2022-10-31T15:08:19.298Z,100495.80
2022-10-31T15:11:33.963Z,100498.40
2022-10-31T15:14:42.986Z,100497.40
2022-10-31T15:17:59.629Z,100498.80
2022-10-31T15:21:12.467Z,100500.80
2022-10-31T15:24:25.286Z,100502.40
2022-10-31T15:27:36.284Z,100503.00
2022-10-31T15:30:49.314Z,100504.00
2022-10-31T15:33:57.345Z,100506.40
2022-10-31T15:37:10.303Z,100504.60
2022-10-31T15:40:17.300Z,100500.40
2022-10-31T15:43:39.364Z,100505.40
2022-10-31T15:46:57.317Z,100507.20
2022-10-31T15:50:07.303Z,100509.00
2022-10-31T15:53:14.323Z,100514.00
2022-10-31T15:56:27.666Z,100522.60
2022-10-31T15:59:40.858Z,100527.00
2022-10-31T16:02:53.401Z,100528.40
2022-10-31T16:06:08.357Z,100531.80
2022-10-31T16:09:18.361Z,100532.00
2022-10-31T16:12:37.156Z,100539.60
2022-10-31T16:15:44.319Z,100540.00
2022-10-31T16:18:51.376Z,100543.40
2022-10-31T16:22:07.356Z,100550.00
2022-10-31T16:25:17.441Z,100553.20
2022-10-31T16:28:32.039Z,100553.80
2022-10-31T16:31:48.637Z,100564.40
2022-10-31T16:35:02.447Z,100570.20
2022-10-31T16:38:12.413Z,100567.40
2022-10-31T16:44:58.506Z,100580.80
2022-10-31T16:48:15.478Z,100582.60
2022-10-31T16:51:28.642Z,100582.20
2022-10-31T16:54:41.477Z,100584.80
2022-10-31T16:57:54.493Z,100595.00
2022-10-31T17:01:09.027Z,100590.20
2022-10-31T17:04:18.543Z,100597.00
2022-10-31T17:07:31.469Z,100596.60
2022-10-31T17:10:47.397Z,100594.00
2022-10-31T17:13:58.548Z,100602.00
2022-10-31T17:17:06.490Z,100603.80
2022-10-31T17:20:19.490Z,100605.00
2022-10-31T17:23:26.528Z,100605.00
2022-10-31T17:26:33.543Z,100612.60
2022-10-31T17:29:45.619Z,100615.80
2022-10-31T17:32:52.556Z,100618.40
2022-10-31T17:35:59.664Z,100618.60
2022-10-31T17:39:07.674Z,100628.60
2022-10-31T17:42:20.905Z,100624.40
2022-10-31T17:45:30.527Z,100630.40
2022-10-31T17:49:00.639Z,100632.00
2022-10-31T17:52:17.787Z,100632.20
2022-10-31T17:55:36.043Z,100631.60
2022-10-31T17:58:47.311Z,100633.00
2022-10-31T18:02:17.001Z,100634.40
2022-10-31T18:06:13.785Z,100640.00
2022-10-31T18:09:38.260Z,100640.80
2022-10-31T18:12:50.672Z,100643.60
2022-10-31T18:16:00.698Z,100643.00
2022-10-31T18:26:33.746Z,100657.00
2022-10-31T18:30:37.984Z,100655.60
2022-10-31T18:34:00.147Z,100655.40
2022-10-31T18:40:59.820Z,100660.00
2022-10-31T18:44:29.630Z,100655.20
2022-10-31T18:47:38.730Z,100662.20
2022-10-31T18:50:45.679Z,100664.20
2022-10-31T18:54:04.096Z,100668.60
2022-10-31T18:57:11.759Z,100665.80
2022-10-31T19:00:21.740Z,100666.40
2022-10-31T19:03:28.969Z,100669.60
2022-10-31T19:06:37.773Z,100677.60
2022-10-31T19:09:44.841Z,100676.00
2022-10-31T19:12:58.954Z,100681.00
2022-10-31T19:16:08.766Z,100684.40
2022-10-31T19:19:18.821Z,100685.00
2022-10-31T19:22:25.840Z,100681.20
2022-10-31T19:25:32.962Z,100678.40
2022-10-31T19:28:40.859Z,100677.80
2022-10-31T19:31:50.963Z,100684.80
2022-10-31T19:35:02.932Z,100692.80
2022-10-31T19:38:12.893Z,100693.00
2022-10-31T19:41:19.854Z,100699.00
2022-10-31T19:44:26.829Z,100698.60
2022-10-31T19:47:33.957Z,100699.60
2022-10-31T19:50:43.866Z,100702.40
2022-10-31T19:53:54.948Z,100710.80
2022-10-31T20:01:06.057Z,100713.80
2022-10-31T20:04:54.769Z,100717.00
2022-10-31T20:08:12.049Z,100715.00
2022-10-31T20:11:30.200Z,100716.80
2022-10-31T20:22:14.738Z,100722.40
2022-10-31T20:26:15.508Z,100730.20
2022-10-31T20:30:09.438Z,100731.80
2022-10-31T20:34:05.177Z,100737.00
2022-10-31T20:37:56.840Z,100735.80
2022-10-31T20:56:40.145Z,100757.00
2022-10-31T20:59:50.151Z,100758.20
2022-10-31T21:03:00.342Z,100760.60
2022-10-31T21:06:08.077Z,100762.80
2022-10-31T21:09:15.247Z,100764.20
2022-10-31T21:12:25.229Z,100760.00
2022-10-31T21:15:33.220Z,100759.80
2022-10-31T21:18:43.135Z,100762.00
2022-10-31T21:22:31.100Z,100764.00
2022-10-31T21:26:08.409Z,100766.60
2022-10-31T21:29:38.332Z,100766.00
2022-10-31T21:32:49.448Z,100768.20
2022-10-31T21:36:02.512Z,100773.20
2022-10-31T21:39:15.533Z,100776.20
2022-10-31T21:42:32.695Z,100775.00
2022-10-31T21:45:56.626Z,100777.00
2022-10-31T21:53:25.195Z,100781.20
2022-10-31T21:57:11.549Z,100779.40
2022-10-31T22:07:26.600Z,100789.40
2022-10-31T22:10:37.738Z,100793.60
2022-10-31T22:13:55.948Z,100795.80
2022-10-31T22:17:09.574Z,100793.20
2022-10-31T22:20:22.516Z,100798.00
2022-10-31T22:23:38.534Z,100798.20
2022-10-31T22:26:55.665Z,100808.20
2022-10-31T22:30:06.570Z,100806.80
2022-10-31T22:33:24.556Z,100810.40
2022-10-31T22:36:46.413Z,100808.60
2022-10-31T22:39:53.588Z,100814.20
2022-10-31T22:43:04.736Z,100817.20
2022-10-31T22:46:12.603Z,100817.40
2022-10-31T22:49:21.873Z,100823.60
2022-10-31T22:52:30.564Z,100828.00
2022-10-31T22:55:37.577Z,100822.00
2022-10-31T22:58:47.619Z,100825.40
2022-10-31T23:01:57.700Z,100823.40
2022-10-31T23:05:05.615Z,100821.00
2022-10-31T23:08:12.660Z,100826.00
2022-10-31T23:11:25.744Z,100829.40
2022-10-31T23:14:35.664Z,100831.20
2022-10-31T23:17:45.604Z,100825.20
2022-10-31T23:20:52.672Z,100825.80
2022-10-31T23:24:03.672Z,100824.00
2022-10-31T23:27:13.730Z,100820.40
2022-10-31T23:30:24.633Z,100826.20
2022-10-31T23:33:31.710Z,100827.20
2022-10-31T23:36:41.808Z,100828.40
2022-10-31T23:39:49.689Z,100834.40
2022-10-31T23:42:56.759Z,100839.20
2022-10-31T23:46:06.733Z,100836.40
2022-10-31T23:49:16.647Z,100841.00
2022-10-31T23:52:26.795Z,100841.80
2022-10-31T23:55:36.755Z,100838.60
2022-10-31T23:58:46.816Z,100834.60
